To NAV CANADA Home Page Login to a new session Search on AWWS site Disclaimer Vers la page française équivalente Tips FAQ What's new on the site To the Forecasts and Observations / NOTAM section To "File a Flight Plan" website Publications and other links Update of the User's profile FIC Telephone Numbers My Weather Data Folder Route Weather Data Regional Weather Data Local Weather Data To the Forecasts and Observations / NOTAM section
Request Generated 10/19/2018 at 15:27:30 UTC . Weather information available at that time is displayed.

METAR/TAF

GOOSE BAY/NL    

METAR CYYR 191500Z 32003KT 4SM -SHSN FEW009 OVC027 M01/M03 A2978 RMK SF2SC6 SLP088=
SPECI CYYR 191418Z 33006KT 5SM -SHSN FEW012 BKN028 OVC062 M02/M04 A2978 RMK SF1SC5SC2 SLP086=
METAR CYYR 191400Z 33006KT 12SM -SHSN FEW025 BKN041 OVC062 M02/M03 A2978 RMK CF2SC3SC3 SLP086=
METAR CYYR 191300Z 32006KT 15SM -SHSN FEW025 OVC041 M02/M04 A2977 RMK CF1SC7 VIS LWR NW QUAD SLP084=

TAF AMD CYYR 191425Z 1914/2012 33005KT P6SM SCT012 OVC025 TEMPO
1914/1920 3SM -SHSN BKN012 OVC020
FM192000 29008KT P6SM -SHSN BKN025
FM192200 27008KT P6SM FEW030
BECMG 2000/2002 VRB03KT
FM201000 06005KT P6SM BKN060
RMK NXT FCST BY 191800Z=
Your time UTC time
Weather data provided by Environment Canada and NAV CANADA